Time;durP1;ratioP1;P1;durP2;ratioP2;P2;SDS_P1;SDS_P2;PMS_P1;PMS_P2;Temp;Humidity;BMP_temperature;BMP_pressure;BME280_temperature;BME280_humidity;BME280_pressure;Samples;Min_cycle;Max_cycle;Signal;HPM_P1;HPM_P2
2022/08/31 00:05:27;;;;;;;10.38;4.13;;;;;;;15.12;80.61;101964.75;5113148;28;20101;-45
2022/08/31 00:07:52;;;;;;;5.82;4.20;;;;;;;15.11;80.83;101965.56;5113007;28;20422;-44
2022/08/31 00:10:20;;;;;;;6.88;4.32;;;;;;;15.08;81.16;101965.50;5113672;28;20034;-44
2022/08/31 00:12:47;;;;;;;6.22;3.72;;;;;;;15.10;81.24;101971.59;5112956;28;20027;-43
2022/08/31 00:15:16;;;;;;;7.78;3.97;;;;;;;15.07;81.31;101968.94;5113184;28;20070;-44
2022/08/31 00:17:42;;;;;;;11.82;4.00;;;;;;;15.07;81.48;101962.88;5113222;28;20122;-44
2022/08/31 00:20:09;;;;;;;5.82;3.50;;;;;;;15.05;81.68;101973.19;5112676;28;20106;-44
2022/08/31 00:22:35;;;;;;;9.18;4.45;;;;;;;15.03;81.83;101972.28;5113203;28;20016;-45
2022/08/31 00:25:00;;;;;;;5.47;3.60;;;;;;;15.05;81.80;101965.38;5113396;28;20034;-44
2022/08/31 00:27:26;;;;;;;6.85;4.20;;;;;;;15.05;81.85;101970.59;5112688;28;20035;-43
2022/08/31 00:29:51;;;;;;;8.45;4.20;;;;;;;15.05;82.03;101965.38;5113017;28;20028;-44
2022/08/31 00:32:16;;;;;;;7.25;3.92;;;;;;;15.08;81.87;101962.91;5113171;28;20467;-46
2022/08/31 00:34:42;;;;;;;7.22;4.10;;;;;;;15.09;81.84;101956.88;5112497;28;20031;-43
2022/08/31 00:37:07;;;;;;;7.00;3.90;;;;;;;15.11;82.01;101960.38;5112897;28;20031;-45
2022/08/31 00:39:32;;;;;;;8.18;3.88;;;;;;;15.09;81.80;101955.97;5113436;28;20138;-46
2022/08/31 00:41:58;;;;;;;5.70;3.60;;;;;;;15.07;82.19;101968.94;5112551;28;20106;-43
2022/08/31 00:44:24;;;;;;;7.43;3.97;;;;;;;15.10;82.04;101957.75;5112975;28;20101;-43
2022/08/31 00:46:49;;;;;;;6.32;3.70;;;;;;;15.06;82.61;101955.91;5112609;28;20047;-43
2022/08/31 00:49:19;;;;;;;8.80;3.60;;;;;;;15.12;81.86;101956.97;5112654;28;20391;-45
2022/08/31 00:51:52;;;;;;;6.60;4.05;;;;;;;15.10;82.22;101962.94;5113184;28;20023;-44
2022/08/31 00:54:23;;;;;;;8.55;3.70;;;;;;;15.12;81.79;101954.34;5112583;28;20098;-46
2022/08/31 00:56:49;;;;;;;7.10;4.03;;;;;;;15.11;81.96;101954.31;5112580;28;20494;-46
2022/08/31 00:59:17;;;;;;;7.72;3.70;;;;;;;15.09;81.97;101956.88;5112969;28;20039;-43
2022/08/31 01:01:42;;;;;;;6.03;3.33;;;;;;;15.07;82.16;101952.47;5112200;28;20074;-45
2022/08/31 01:04:08;;;;;;;6.07;3.17;;;;;;;15.04;82.31;101955.88;5112655;28;20027;-43
2022/08/31 01:06:34;;;;;;;5.60;3.58;;;;;;;15.04;82.24;101958.47;5113110;28;20042;-46
2022/08/31 01:09:02;;;;;;;6.93;3.50;;;;;;;15.01;82.40;101958.34;5114114;28;20031;-49
2022/08/31 01:11:28;;;;;;;6.32;3.42;;;;;;;15.00;82.43;101959.19;5116661;28;20058;-47
2022/08/31 01:13:54;;;;;;;6.00;3.40;;;;;;;15.02;82.36;101959.25;5116754;28;20105;-43
2022/08/31 01:16:27;;;;;;;5.43;3.50;;;;;;;14.95;82.59;101958.16;5116146;28;20055;-47
2022/08/31 01:18:55;;;;;;;4.90;3.17;;;;;;;14.92;82.56;101960.69;5116278;28;20057;-49
2022/08/31 01:21:28;;;;;;;5.78;3.17;;;;;;;14.82;83.16;101957.81;5116681;28;20098;-45
2022/08/31 01:23:57;;;;;;;6.65;3.55;;;;;;;14.79;83.31;101962.91;5115987;28;20031;-46
2022/08/31 01:26:25;;;;;;;5.63;3.30;;;;;;;14.82;83.27;101960.41;5116219;28;20047;-44
2022/08/31 01:28:53;;;;;;;;;;;;;;;14.90;80.24;101959.75;5116745;28;20498;-47
2022/08/31 01:31:23;;;;;;;7.55;3.60;;;;;;;14.79;83.17;101960.31;5115556;28;20010;-43
2022/08/31 01:33:49;;;;;;;4.43;3.13;;;;;;;14.74;83.43;101953.22;5116172;28;20114;-43
2022/08/31 01:36:16;;;;;;;6.25;3.45;;;;;;;14.74;83.58;101954.09;5115779;28;20479;-48
2022/08/31 01:38:42;;;;;;;6.45;3.40;;;;;;;14.76;83.63;101956.75;5116094;28;20027;-44
2022/08/31 01:41:07;;;;;;;6.20;3.70;;;;;;;14.69;83.84;101957.41;5116047;28;20031;-48
2022/08/31 01:43:33;;;;;;;7.63;3.63;;;;;;;14.67;83.86;101959.97;5115796;28;20028;-43
2022/08/31 01:46:01;;;;;;;7.40;3.75;;;;;;;14.59;84.20;101956.19;5115979;28;20035;-46
2022/08/31 01:48:27;;;;;;;8.30;3.13;;;;;;;14.58;84.19;101954.47;5116284;27;20016;-47
2022/08/31 01:50:53;;;;;;;4.97;3.22;;;;;;;14.57;84.46;101955.28;5115284;28;20387;-44
2022/08/31 01:53:18;;;;;;;4.75;3.35;;;;;;;14.57;84.36;101955.28;5115760;28;20471;-44
2022/08/31 01:55:45;;;;;;;6.50;3.42;;;;;;;14.54;84.62;101955.16;5115939;28;20032;-45
2022/08/31 01:58:11;;;;;;;5.47;3.38;;;;;;;14.49;84.76;101957.63;5115270;28;20023;-44
2022/08/31 02:00:37;;;;;;;6.05;3.78;;;;;;;14.48;84.87;101961.94;5115921;28;20067;-44
2022/08/31 02:03:06;;;;;;;5.10;3.40;;;;;;;14.45;85.09;101956.66;5116088;27;20019;-46
2022/08/31 02:05:31;;;;;;;6.63;3.67;;;;;;;14.45;85.02;101956.66;5115287;28;20039;-45
2022/08/31 02:07:57;;;;;;;5.95;3.30;;;;;;;14.45;85.12;101955.78;5115490;28;20027;-45
2022/08/31 02:10:23;;;;;;;6.32;3.70;;;;;;;14.33;85.23;101958.84;5115711;28;20028;-44
2022/08/31 02:12:48;;;;;;;5.25;3.30;;;;;;;14.29;85.65;101960.50;5114899;28;20027;-48
2022/08/31 02:15:14;;;;;;;5.72;3.63;;;;;;;14.33;85.54;101966.63;5115555;28;20042;-43
2022/08/31 02:17:39;;;;;;;4.80;3.40;;;;;;;14.27;85.95;101967.31;5115721;28;20027;-44
2022/08/31 02:20:07;;;;;;;8.88;4.25;;;;;;;14.20;86.19;101970.53;5114951;28;20144;-46
2022/08/31 02:22:32;;;;;;;5.57;3.75;;;;;;;14.13;86.24;101966.88;5115398;28;20032;-45
2022/08/31 02:24:58;;;;;;;9.00;3.88;;;;;;;14.18;86.39;101972.22;5115297;28;20399;-44
2022/08/31 02:27:23;;;;;;;5.82;3.63;;;;;;;14.12;86.58;101972.88;5114442;28;20031;-43
2022/08/31 02:29:49;;;;;;;6.35;3.53;;;;;;;14.10;86.64;101973.66;5115737;28;20028;-44
2022/08/31 02:32:14;;;;;;;7.07;4.15;;;;;;;14.05;86.73;101970.06;5115464;28;20375;-46
2022/08/31 02:34:39;;;;;;;7.00;3.97;;;;;;;13.97;87.19;101968.09;5114402;28;20356;-48
2022/08/31 02:37:05;;;;;;;5.20;3.95;;;;;;;13.95;87.12;101972.31;5115271;28;20051;-43
2022/08/31 02:39:30;;;;;;;5.75;3.65;;;;;;;13.90;87.50;101973.88;5114477;28;20052;-45
2022/08/31 02:41:55;;;;;;;6.53;3.78;;;;;;;13.94;87.48;101972.28;5114657;28;20031;-45
2022/08/31 02:44:21;;;;;;;6.78;3.67;;;;;;;13.86;87.68;101973.72;5115106;28;20383;-46
2022/08/31 02:46:46;;;;;;;7.35;4.35;;;;;;;13.83;87.59;101969.34;5114106;28;20135;-45
2022/08/31 02:49:11;;;;;;;6.47;3.60;;;;;;;13.87;87.64;101972.91;5114759;28;20024;-46
2022/08/31 02:51:41;;;;;;;4.85;3.60;;;;;;;13.83;87.78;101974.50;5114896;28;20111;-44
2022/08/31 02:54:07;;;;;;;6.15;4.05;;;;;;;13.70;88.11;101973.22;5114263;28;20062;-44
2022/08/31 02:56:32;;;;;;;6.72;3.70;;;;;;;13.74;88.16;101969.03;5114449;28;20020;-44
2022/08/31 02:58:57;;;;;;;6.63;3.97;;;;;;;13.75;88.27;101969.06;5114909;27;20077;-45
2022/08/31 03:01:25;;;;;;;6.03;4.10;;;;;;;13.66;88.48;101972.22;5114497;28;20382;-45
2022/08/31 03:03:50;;;;;;;7.00;3.95;;;;;;;13.49;88.59;101973.31;5114522;28;20031;-43
2022/08/31 03:06:17;;;;;;;6.15;3.72;;;;;;;13.47;88.83;101970.69;5114654;28;20031;-44
2022/08/31 03:08:42;;;;;;;11.18;4.40;;;;;;;13.42;89.04;101972.22;5114033;28;20057;-44
2022/08/31 03:11:08;;;;;;;6.85;4.30;;;;;;;13.35;89.41;101975.41;5114156;28;20099;-44
2022/08/31 03:13:35;;;;;;;7.10;4.40;;;;;;;13.27;89.63;101971.63;5114434;28;20040;-47
2022/08/31 03:16:01;;;;;;;9.65;4.57;;;;;;;13.26;89.61;101972.44;5113968;28;20020;-44
2022/08/31 03:18:26;;;;;;;5.38;3.88;;;;;;;13.21;89.97;101966.22;5114208;28;20100;-45
2022/08/31 03:20:51;;;;;;;6.25;4.07;;;;;;;13.22;89.89;101971.47;5114359;28;20032;-44
2022/08/31 03:23:17;;;;;;;7.97;3.90;;;;;;;13.18;90.09;101972.16;5113615;28;20019;-44
2022/08/31 03:25:42;;;;;;;8.95;4.43;;;;;;;13.15;90.37;101964.31;5114223;28;20030;-47
2022/08/31 03:28:07;;;;;;;8.93;4.15;;;;;;;13.23;90.19;101962.00;5113970;28;20108;-47
2022/08/31 03:30:33;;;;;;;7.60;4.20;;;;;;;13.13;90.35;101968.53;5113311;28;20038;-43
2022/08/31 03:32:58;;;;;;;4.68;3.78;;;;;;;13.07;90.26;101974.38;5113699;28;20024;-45
2022/08/31 03:35:24;;;;;;;5.47;4.22;;;;;;;13.02;90.38;101971.59;5114069;28;20043;-45
2022/08/31 03:37:49;;;;;;;6.97;3.78;;;;;;;13.00;90.55;101969.78;5113122;28;20114;-43
2022/08/31 03:40:15;;;;;;;5.75;4.13;;;;;;;12.99;90.70;101968.03;5113672;28;20057;-46
2022/08/31 03:42:41;;;;;;;7.05;4.18;;;;;;;13.01;90.57;101968.94;5113512;28;20024;-48
2022/08/31 03:45:07;;;;;;;5.72;4.30;;;;;;;12.99;90.43;101976.66;5113718;28;20016;-44
2022/08/31 03:47:33;;;;;;;6.50;3.97;;;;;;;12.98;90.32;101974.03;5113940;28;20123;-44
2022/08/31 03:49:58;;;;;;;7.07;3.80;;;;;;;13.07;89.91;101983.84;5113069;28;20069;-43
2022/08/31 03:52:23;;;;;;;4.63;3.63;;;;;;;12.99;90.13;101980.97;5113502;28;20024;-45
2022/08/31 03:54:48;;;;;;;6.07;4.00;;;;;;;12.90;90.08;101975.44;5113571;28;20479;-43
2022/08/31 03:57:14;;;;;;;6.03;4.00;;;;;;;12.85;90.18;101981.31;5113256;28;20490;-44
2022/08/31 03:59:39;;;;;;;7.15;3.97;;;;;;;12.85;89.97;101978.72;5113459;28;20031;-44
2022/08/31 04:02:05;;;;;;;6.22;3.85;;;;;;;12.75;90.46;101981.78;5113595;28;20024;-44
2022/08/31 04:04:30;;;;;;;6.13;3.88;;;;;;;12.71;90.33;101979.03;5113137;28;20035;-43
2022/08/31 04:06:55;;;;;;;9.57;3.90;;;;;;;12.72;90.17;101978.19;5113109;28;20032;-45
2022/08/31 04:09:21;;;;;;;6.75;4.13;;;;;;;12.67;90.19;101976.31;5113441;28;20080;-45
2022/08/31 04:11:46;;;;;;;4.70;3.60;;;;;;;12.64;90.32;101978.78;5112967;28;20024;-45
2022/08/31 04:14:12;;;;;;;5.22;3.47;;;;;;;12.59;90.29;101979.41;5113335;28;20019;-44
2022/08/31 04:16:38;;;;;;;5.07;3.60;;;;;;;12.64;89.81;101985.63;5113405;28;20049;-43
2022/08/31 04:19:05;;;;;;;6.43;3.60;;;;;;;12.64;89.61;101983.97;5112918;28;20031;-44
2022/08/31 04:21:31;;;;;;;4.88;3.47;;;;;;;12.61;89.45;101988.13;5113304;28;20125;-43
2022/08/31 04:23:58;;;;;;;7.53;3.55;;;;;;;12.55;89.48;101986.19;5113170;28;20089;-44
2022/08/31 04:26:27;;;;;;;6.82;3.40;;;;;;;12.57;89.35;101988.81;5112901;28;20043;-43
2022/08/31 04:28:52;;;;;;;6.57;3.50;;;;;;;12.55;89.11;101985.28;5113106;28;20055;-47
2022/08/31 04:31:19;;;;;;;6.07;3.22;;;;;;;12.56;88.79;101985.34;5113374;28;20051;-44
2022/08/31 04:33:45;;;;;;;6.17;3.30;;;;;;;12.54;88.60;101993.84;5112364;28;20028;-44
2022/08/31 04:36:14;;;;;;;6.07;3.90;;;;;;;12.55;88.38;101990.47;5113070;28;20024;-46
2022/08/31 04:38:42;;;;;;;4.95;3.13;;;;;;;12.54;88.12;101991.28;5112978;28;20024;-46
2022/08/31 04:41:11;;;;;;;7.97;3.47;;;;;;;12.55;87.70;101993.94;5112307;28;20040;-44
2022/08/31 04:43:38;;;;;;;6.10;3.13;;;;;;;12.56;87.58;101989.66;5114469;28;20028;-48
2022/08/31 04:46:06;;;;;;;4.90;2.90;;;;;;;12.57;87.25;101994.00;5116853;28;20040;-43
2022/08/31 04:48:31;;;;;;;;;;;;;;;12.63;86.08;101991.66;5117542;28;20274;-45
2022/08/31 04:51:05;;;;;;;5.50;3.15;;;;;;;12.46;87.34;101997.03;5117146;28;19941;-46
2022/08/31 04:53:31;;;;;;;5.13;3.05;;;;;;;12.48;87.15;101989.34;5116827;28;20020;-48
2022/08/31 04:55:57;;;;;;;4.72;3.28;;;;;;;12.45;86.98;101987.50;5116946;28;20023;-45
2022/08/31 04:58:22;;;;;;;6.75;3.13;;;;;;;12.46;86.68;101991.88;5117235;28;20356;-44
2022/08/31 05:00:51;;;;;;;6.53;2.85;;;;;;;12.47;86.48;101993.63;5116311;28;20024;-46
2022/08/31 05:03:18;;;;;;;5.28;2.88;;;;;;;12.49;86.29;101993.69;5116704;28;20019;-43
2022/08/31 05:05:45;;;;;;;3.85;2.67;;;;;;;12.46;85.91;101989.28;5116643;28;20035;-44
2022/08/31 05:08:11;;;;;;;4.82;2.90;;;;;;;12.48;85.64;101997.97;5116524;27;20023;-43
2022/08/31 05:10:39;;;;;;;5.18;2.50;;;;;;;12.47;85.67;102003.97;5116906;28;20382;-43
2022/08/31 05:13:04;;;;;;;;;;;;;;;12.56;84.47;102002.56;5117209;28;20463;-44
2022/08/31 05:15:30;;;;;;;5.53;2.80;;;;;;;12.53;84.59;102003.34;5116346;27;19956;-44
2022/08/31 05:17:55;;;;;;;5.95;2.70;;;;;;;12.42;85.00;102013.25;5116502;28;20065;-43
2022/08/31 05:20:20;;;;;;;4.70;2.90;;;;;;;12.44;85.27;102005.56;5116604;28;20062;-45
2022/08/31 05:22:45;;;;;;;5.68;2.55;;;;;;;12.37;85.32;102007.00;5116199;28;20083;-44
2022/08/31 05:25:11;;;;;;;4.45;2.65;;;;;;;12.36;84.89;102013.00;5116496;28;20038;-43
2022/08/31 05:27:37;;;;;;;4.68;2.80;;;;;;;12.39;84.55;102013.09;5116586;28;20122;-43
2022/08/31 05:30:03;;;;;;;6.13;3.03;;;;;;;12.43;84.08;102015.00;5115799;28;20019;-45
2022/08/31 05:32:28;;;;;;;5.65;2.60;;;;;;;12.47;83.47;102016.00;5116409;28;20024;-46
2022/08/31 05:34:53;;;;;;;4.38;2.50;;;;;;;12.48;83.33;102012.59;5116245;28;20084;-44
2022/08/31 05:37:19;;;;;;;6.60;2.78;;;;;;;12.53;82.81;102021.44;5115686;28;20490;-45
2022/08/31 05:39:44;;;;;;;5.53;2.45;;;;;;;12.54;82.80;102019.72;5115654;28;20047;-44
2022/08/31 05:42:14;;;;;;;4.00;2.45;;;;;;;12.59;82.31;102024.28;5115046;28;20114;-44
2022/08/31 05:44:39;;;;;;;4.68;2.45;;;;;;;12.64;81.73;102015.00;5114682;28;20017;-44
2022/08/31 05:47:06;;;;;;;6.85;2.28;;;;;;;12.67;81.81;102012.53;5114905;28;20461;-49
2022/08/31 05:49:31;;;;;;;4.65;2.17;;;;;;;12.76;80.91;102014.59;5114370;28;20063;-47
2022/08/31 05:51:57;;;;;;;4.75;2.10;;;;;;;12.81;80.38;102007.91;5114551;28;20105;-43
2022/08/31 05:54:23;;;;;;;5.32;2.33;;;;;;;12.87;80.21;102016.72;5114533;28;20103;-45
2022/08/31 05:56:48;;;;;;;6.25;2.22;;;;;;;12.89;80.43;102015.09;5114256;28;20419;-45
2022/08/31 05:59:13;;;;;;;4.35;2.17;;;;;;;12.89;80.44;102015.94;5114473;28;20799;-43
2022/08/31 06:01:40;;;;;;;5.60;2.25;;;;;;;12.98;78.95;102023.19;5114532;28;20032;-45
2022/08/31 06:04:06;;;;;;;8.48;2.55;;;;;;;12.99;79.14;102018.06;5113879;28;20032;-43
2022/08/31 06:06:32;;;;;;;7.53;2.35;;;;;;;13.04;78.73;102020.84;5114557;28;20024;-46
2022/08/31 06:08:57;;;;;;;5.00;2.00;;;;;;;13.08;78.15;102022.72;5114670;28;20071;-45
2022/08/31 06:11:28;;;;;;;9.52;2.47;;;;;;;13.13;77.55;102021.19;5114066;28;20469;-44
2022/08/31 06:13:55;;;;;;;6.65;2.28;;;;;;;13.22;76.97;102019.75;5114325;28;20039;-43
2022/08/31 06:16:23;;;;;;;6.75;2.10;;;;;;;13.28;77.00;102025.19;5114348;28;20023;-43
2022/08/31 06:18:49;;;;;;;6.65;2.00;;;;;;;13.34;76.52;102036.63;5113714;28;20073;-44
2022/08/31 06:21:23;;;;;;;5.78;2.22;;;;;;;13.43;75.80;102030.97;5114239;28;20047;-45
2022/08/31 06:23:51;;;;;;;4.43;2.10;;;;;;;13.49;75.63;102036.38;5114403;28;20050;-44
2022/08/31 06:26:18;;;;;;;5.85;2.25;;;;;;;13.57;75.32;102039.25;5113492;28;20035;-44
2022/08/31 06:28:46;;;;;;;7.85;2.60;;;;;;;13.66;75.16;102043.88;5114232;28;20074;-44
2022/08/31 06:31:14;;;;;;;10.90;2.60;;;;;;;13.76;75.08;102043.38;5114247;28;20081;-47
2022/08/31 06:33:41;;;;;;;5.78;2.53;;;;;;;13.88;74.33;102045.53;5113420;28;20023;-47
2022/08/31 06:36:12;;;;;;;10.00;2.30;;;;;;;14.01;73.74;102054.59;5114298;28;20024;-47
2022/08/31 06:38:39;;;;;;;9.15;2.70;;;;;;;14.14;72.82;102050.72;5113579;28;20057;-44
2022/08/31 06:41:34;;;;;;;7.20;2.00;;;;;;;14.30;72.79;102055.56;5078119;28;1031530;-44
2022/08/31 06:44:00;;;;;;;9.40;2.33;;;;;;;14.44;72.04;102048.25;5113688;28;20036;-46
2022/08/31 06:46:27;;;;;;;8.55;1.83;;;;;;;14.54;70.38;102053.75;5114453;27;20027;-44
2022/08/31 06:48:54;;;;;;;9.57;2.10;;;;;;;14.72;70.84;102062.19;5114690;28;20055;-46
2022/08/31 06:51:19;;;;;;;5.82;1.92;;;;;;;14.97;69.74;102060.34;5114882;28;20027;-46
2022/08/31 06:53:44;;;;;;;6.13;1.83;;;;;;;15.10;68.44;102056.41;5114088;28;20020;-47
2022/08/31 06:56:15;;;;;;;5.10;1.77;;;;;;;15.28;68.60;102061.28;5114415;28;20047;-44
2022/08/31 06:58:40;;;;;;;6.07;2.08;;;;;;;15.37;68.21;102061.53;5114921;28;20027;-46
2022/08/31 07:01:08;;;;;;;4.70;1.88;;;;;;;15.43;67.16;102066.06;5113781;28;20028;-45
2022/08/31 07:03:34;;;;;;;;;;;;;;;15.53;69.06;102067.19;5115042;28;20348;-46
2022/08/31 07:06:08;;;;;;;4.35;1.65;;;;;;;15.40;67.02;102072.03;5113616;28;19919;-47
2022/08/31 07:08:34;;;;;;;5.35;1.98;;;;;;;15.56;67.16;102068.16;5113794;28;20016;-45
2022/08/31 07:10:59;;;;;;;4.53;2.08;;;;;;;15.59;66.10;102070.84;5114621;28;20047;-43
2022/08/31 07:13:25;;;;;;;4.10;1.45;;;;;;;15.71;66.67;102067.72;5114532;28;20119;-45
2022/08/31 07:15:50;;;;;;;3.03;1.50;;;;;;;15.71;65.08;102072.91;5113672;28;20043;-45
2022/08/31 07:18:15;;;;;;;6.82;2.08;;;;;;;15.72;65.03;102064.25;5114481;28;20487;-43
2022/08/31 07:20:41;;;;;;;7.43;2.22;;;;;;;15.72;64.84;102066.84;5113904;28;20024;-43
2022/08/31 07:23:06;;;;;;;5.68;1.90;;;;;;;15.71;64.94;102065.13;5113661;28;20457;-43
2022/08/31 07:25:31;;;;;;;3.70;1.83;;;;;;;15.78;65.37;102068.78;5114420;28;20032;-48
2022/08/31 07:27:58;;;;;;;4.43;2.13;;;;;;;15.83;65.08;102063.72;5113698;28;20135;-44
2022/08/31 07:30:24;;;;;;;6.05;2.03;;;;;;;15.92;64.63;102066.56;5114192;28;20035;-44
2022/08/31 07:32:50;;;;;;;5.88;2.05;;;;;;;16.03;64.32;102066.88;5113938;28;20485;-47
2022/08/31 07:35:17;;;;;;;7.65;1.92;;;;;;;16.02;63.69;102071.16;5113357;28;20486;-45
2022/08/31 07:43:12;;;;;;;5.63;2.10;;;;;;;16.38;64.18;102067.75;5113182;28;20501;-47
2022/08/31 07:45:39;;;;;;;4.00;1.73;;;;;;;16.44;62.95;102067.91;5113796;28;20023;-45
2022/08/31 07:48:04;;;;;;;10.82;2.42;;;;;;;16.45;62.79;102066.22;5113890;28;20034;-47
2022/08/31 07:50:30;;;;;;;4.93;1.90;;;;;;;16.36;62.46;102071.16;5112877;28;20106;-47
2022/08/31 07:52:57;;;;;;;5.18;1.95;;;;;;;16.42;62.73;102068.72;5113599;28;20019;-49
2022/08/31 07:55:25;;;;;;;4.75;2.30;;;;;;;16.50;62.63;102071.50;5113625;28;20393;-44
2022/08/31 07:57:52;;;;;;;6.20;1.90;;;;;;;16.51;62.62;102081.94;5112866;28;20045;-45
2022/08/31 08:00:23;;;;;;;5.95;2.28;;;;;;;16.68;63.33;102084.09;5113648;28;20028;-45
2022/08/31 08:02:50;;;;;;;3.90;2.17;;;;;;;16.67;62.15;102078.03;5113289;28;20528;-48
2022/08/31 08:05:21;;;;;;;7.13;2.20;;;;;;;16.64;62.57;102080.53;5112942;28;20088;-48
2022/08/31 08:07:52;;;;;;;7.00;2.30;;;;;;;16.76;63.51;102078.25;5113410;28;20098;-48
2022/08/31 08:10:21;;;;;;;4.38;2.03;;;;;;;16.85;62.72;102081.88;5112965;28;20038;-48
2022/08/31 08:12:55;;;;;;;6.38;2.40;;;;;;;17.09;63.29;102084.22;5113128;28;20016;-45
2022/08/31 08:15:23;;;;;;;5.25;2.42;;;;;;;17.21;62.66;102088.81;5113329;28;20019;-48
2022/08/31 08:17:48;;;;;;;5.07;2.78;;;;;;;17.36;62.54;102089.16;5112825;28;20069;-48
2022/08/31 08:20:14;;;;;;;6.55;2.40;;;;;;;17.34;61.23;102079.53;5113318;28;20024;-45
2022/08/31 08:22:41;;;;;;;5.63;2.50;;;;;;;17.42;61.97;102083.22;5113146;28;20050;-48
2022/08/31 08:25:08;;;;;;;6.20;2.47;;;;;;;17.49;60.68;102089.41;5112726;28;20044;-45
2022/08/31 08:27:33;;;;;;;4.57;2.40;;;;;;;17.67;61.81;102089.78;5112962;28;20088;-48
2022/08/31 08:29:59;;;;;;;6.57;2.60;;;;;;;17.83;60.92;102091.00;5113110;28;20024;-46
2022/08/31 08:32:24;;;;;;;7.57;2.83;;;;;;;18.09;60.37;102094.09;5112554;28;20031;-48
2022/08/31 08:34:50;;;;;;;5.00;2.92;;;;;;;18.16;60.56;102089.00;5113321;28;20024;-46
2022/08/31 08:37:15;;;;;;;8.07;2.47;;;;;;;18.24;61.20;102092.63;5113185;28;20379;-48
2022/08/31 08:39:44;;;;;;;6.95;2.33;;;;;;;18.37;60.55;102092.00;5112216;28;20040;-46
2022/08/31 08:42:13;;;;;;;7.05;2.65;;;;;;;18.48;59.60;102099.13;5113086;28;20016;-48
2022/08/31 08:44:39;;;;;;;3.90;2.63;;;;;;;18.45;58.67;102093.84;5112979;28;20046;-45
2022/08/31 08:47:14;;;;;;;6.90;2.38;;;;;;;18.58;58.63;102095.81;5112504;28;20073;-44
2022/08/31 08:49:49;;;;;;;6.30;2.35;;;;;;;18.81;58.81;102104.03;5113034;28;20076;-48
2022/08/31 08:52:30;;;;;;;9.27;3.13;;;;;;;18.95;57.87;102099.03;5112463;28;20100;-45
2022/08/31 08:55:04;;;;;;;8.10;2.80;;;;;;;19.04;57.90;102093.97;5112625;28;20023;-43
2022/08/31 08:57:33;;;;;;;4.70;2.72;;;;;;;19.27;56.74;102095.13;5112937;28;20480;-43
2022/08/31 09:00:09;;;;;;;6.93;2.90;;;;;;;19.40;57.18;102103.13;5112451;28;20023;-50
2022/08/31 09:03:02;;;;;;;6.25;2.97;;;;;;;19.39;57.13;102096.16;5112846;28;20102;-49
2022/08/31 09:05:41;;;;;;;7.45;3.42;;;;;;;19.55;57.21;102088.50;5112851;28;20035;-48
2022/08/31 09:08:24;;;;;;;7.20;3.08;;;;;;;19.68;55.47;102098.25;5112184;28;20051;-44
2022/08/31 09:11:17;;;;;;;6.38;2.83;;;;;;;20.04;56.20;102091.69;5112709;28;20367;-45
2022/08/31 09:14:18;;;;;;;7.50;2.80;;;;;;;20.30;56.38;102083.22;5112087;28;20458;-43
2022/08/31 09:17:05;;;;;;;5.68;2.88;;;;;;;20.57;55.83;102084.31;5101412;28;20040;-50
2022/08/31 09:19:57;;;;;;;11.18;3.28;;;;;;;20.62;53.88;102089.56;5112867;28;20024;-47
2022/08/31 09:22:18;;;;;;;10.20;3.22;;;;;;;20.57;53.69;102092.19;5111898;28;20046;-47
2022/08/31 09:24:43;;;;;;;5.63;2.90;;;;;;;20.81;53.14;102088.00;5112755;28;20024;-47
2022/08/31 09:27:18;;;;;;;10.60;3.40;;;;;;;20.93;52.18;102092.44;5112963;28;20028;-46
2022/08/31 09:29:54;;;;;;;9.35;3.05;;;;;;;20.85;51.65;102081.91;5113633;28;20024;-46
2022/08/31 09:32:25;;;;;;;7.00;3.17;;;;;;;20.77;53.13;102079.25;5116361;28;20026;-45
2022/08/31 09:34:57;;;;;;;9.02;3.33;;;;;;;20.45;53.39;102084.22;5115952;28;20030;-43
2022/08/31 09:37:26;;;;;;;5.93;3.22;;;;;;;20.72;53.67;102080.94;5116251;28;20030;-47
2022/08/31 09:39:52;;;;;;;7.72;3.58;;;;;;;20.87;53.38;102086.31;5115885;28;20044;-44
2022/08/31 09:42:30;;;;;;;7.75;3.38;;;;;;;21.49;51.92;102091.00;5115626;28;20103;-44
2022/08/31 09:45:10;;;;;;;6.40;3.40;;;;;;;21.51;51.78;102084.88;5116082;28;20077;-47
2022/08/31 09:47:47;;;;;;;6.85;3.70;;;;;;;21.83;51.41;102085.88;5116289;28;20033;-44
2022/08/31 09:50:43;;;;;;;7.70;3.83;;;;;;;21.98;52.53;102085.91;5115370;28;20379;-46
2022/08/31 09:56:15;;;;;;;7.15;3.92;;;;;;;23.24;47.43;102089.41;5115558;28;20125;-47
2022/08/31 09:58:59;;;;;;;5.75;3.60;;;;;;;23.84;47.68;102089.09;5115663;28;20035;-45
2022/08/31 10:01:43;;;;;;;7.93;3.70;;;;;;;24.84;45.20;102081.31;5115852;28;20024;-45
2022/08/31 10:04:27;;;;;;;6.15;3.00;;;;;;;25.84;44.12;102087.16;5115168;28;20035;-44
2022/08/31 10:07:23;;;;;;;6.22;3.00;;;;;;;26.19;42.62;102082.25;5115620;28;20390;-46
2022/08/31 10:09:57;;;;;;;7.40;3.72;;;;;;;26.01;41.52;102083.38;5115096;28;20055;-45
2022/08/31 10:12:40;;;;;;;7.90;3.83;;;;;;;26.05;42.10;102075.41;5115680;28;20051;-46
2022/08/31 10:15:15;;;;;;;8.73;3.90;;;;;;;25.96;41.22;102080.81;5115703;28;20024;-47
2022/08/31 10:17:51;;;;;;;7.93;3.40;;;;;;;26.08;40.08;102072.72;5114797;28;20049;-47
2022/08/31 10:20:21;;;;;;;5.90;3.17;;;;;;;26.31;39.63;102081.16;5115432;28;20050;-44
2022/08/31 10:22:54;;;;;;;5.57;3.38;;;;;;;26.69;39.09;102082.25;5115395;28;20348;-45
2022/08/31 10:25:25;;;;;;;8.85;3.22;;;;;;;27.11;38.51;102082.38;5114742;28;20023;-45
2022/08/31 10:28:06;;;;;;;8.18;3.40;;;;;;;27.29;38.81;102075.81;5115258;28;20058;-48
2022/08/31 10:30:42;;;;;;;8.82;3.40;;;;;;;27.86;37.56;102074.59;5115355;28;20088;-45
2022/08/31 10:33:16;;;;;;;6.60;3.70;;;;;;;28.00;37.50;102068.09;5115245;28;20049;-47
2022/08/31 10:35:51;;;;;;;8.85;3.63;;;;;;;27.85;37.51;102072.84;5114958;28;20023;-47
2022/08/31 10:38:39;;;;;;;9.23;3.95;;;;;;;27.77;38.36;102072.16;5114586;28;20375;-44
2022/08/31 10:41:12;;;;;;;7.70;3.30;;;;;;;27.66;36.99;102066.25;5113629;28;20066;-48
2022/08/31 10:43:57;;;;;;;9.98;3.72;;;;;;;27.78;37.88;102071.25;5115198;28;20107;-46
2022/08/31 10:46:23;;;;;;;9.55;3.28;;;;;;;28.36;36.06;102062.81;5114311;28;20028;-47
2022/08/31 10:48:53;;;;;;;5.38;3.05;;;;;;;28.18;36.81;102056.19;5114972;28;20023;-47
2022/08/31 10:51:45;;;;;;;7.68;3.42;;;;;;;28.25;35.81;102056.00;5114813;28;20474;-47
2022/08/31 10:54:34;;;;;;;10.07;3.60;;;;;;;28.83;35.36;102058.03;5111609;28;20043;-48
2022/08/31 10:57:18;;;;;;;11.30;3.67;;;;;;;28.41;35.96;102060.91;5114844;28;20023;-48
2022/08/31 10:59:51;;;;;;;12.25;3.92;;;;;;;28.47;36.02;102060.75;5113900;28;20385;-43
2022/08/31 11:02:35;;;;;;;8.52;3.72;;;;;;;28.34;35.82;102060.19;5114551;27;20476;-48
2022/08/31 11:05:28;;;;;;;12.45;3.58;;;;;;;28.16;37.51;102056.25;5114693;28;20095;-45
2022/08/31 11:08:04;;;;;;;7.63;3.97;;;;;;;27.96;36.68;102058.47;5113753;28;20023;-47
2022/08/31 11:10:45;;;;;;;7.72;3.35;;;;;;;28.25;36.61;102050.69;5114864;28;20099;-49
2022/08/31 11:13:37;;;;;;;12.35;3.22;;;;;;;29.58;35.63;102053.22;5114151;28;20019;-47
2022/08/31 11:16:08;;;;;;;6.32;2.92;;;;;;;29.49;34.66;102046.41;5114319;28;20039;-45
2022/08/31 11:18:55;;;;;;;9.10;2.92;;;;;;;29.99;33.17;102056.34;5114381;28;20020;-47
2022/08/31 11:21:41;;;;;;;7.00;3.80;;;;;;;30.46;32.09;102056.53;5113510;28;20487;-44
2022/08/31 11:24:38;;;;;;;6.47;3.03;;;;;;;31.11;32.57;102056.88;5114376;28;20028;-45
2022/08/31 11:27:17;;;;;;;4.63;3.10;;;;;;;31.60;31.14;102055.91;5113613;28;20035;-45
2022/08/31 11:29:57;;;;;;;6.22;2.72;;;;;;;32.00;31.82;102055.16;5113859;28;20382;-45
2022/08/31 11:32:36;;;;;;;7.15;2.78;;;;;;;32.14;30.48;102043.91;5114294;28;20024;-45
2022/08/31 11:35:09;;;;;;;5.93;2.60;;;;;;;32.07;30.24;102042.41;5113166;28;20596;-45
2022/08/31 11:38:00;;;;;;;10.00;2.50;;;;;;;33.18;30.21;102043.81;5114410;28;20102;-47
2022/08/31 11:40:40;;;;;;;7.70;3.03;;;;;;;32.99;28.96;102039.34;5110590;28;20043;-49
2022/08/31 11:43:07;;;;;;;12.93;3.60;;;;;;;32.59;28.42;102031.31;5113118;28;20043;-44
2022/08/31 11:45:36;;;;;;;5.93;2.80;;;;;;;31.83;29.00;102045.19;5113715;28;20498;-48
2022/08/31 11:48:05;;;;;;;16.27;6.35;;;;;;;31.96;29.78;102034.03;5113085;28;20470;-49
2022/08/31 11:51:01;;;;;;;12.32;3.50;;;;;;;32.82;29.39;102032.97;5113782;28;20145;-48